sensor_id;sensor_type;location;lat;lon;timestamp;pressure;altitude;pressure_sealevel;temperature;humidity
69318;BME280;56457;52.190;4.440;2023-08-08T00:00:45;101520.91;;;17.90;100.00
69318;BME280;56457;52.190;4.440;2023-08-08T00:01:45;101521.78;;;17.90;100.00
69318;BME280;56457;52.190;4.440;2023-08-08T00:02:46;101515.66;;;17.87;100.00
69318;BME280;56457;52.190;4.440;2023-08-08T00:03:46;101513.00;;;17.87;100.00
69318;BME280;56457;52.190;4.440;2023-08-08T00:04:46;101514.84;;;17.85;100.00
69318;BME280;56457;52.190;4.440;2023-08-08T00:05:46;101515.66;;;17.87;100.00
69318;BME280;56457;52.190;4.440;2023-08-08T00:06:47;101519.16;;;17.89;100.00
69318;BME280;56457;52.190;4.440;2023-08-08T00:07:47;101518.31;;;17.87;100.00
69318;BME280;56457;52.190;4.440;2023-08-08T00:08:47;101517.50;;;17.85;100.00
69318;BME280;56457;52.190;4.440;2023-08-08T00:09:49;101522.81;;;17.85;100.00
69318;BME280;56457;52.190;4.440;2023-08-08T00:10:50;101518.38;;;17.85;100.00
69318;BME280;56457;52.190;4.440;2023-08-08T00:11:50;101523.69;;;17.85;100.00
69318;BME280;56457;52.190;4.440;2023-08-08T00:12:50;101521.84;;;17.87;100.00
69318;BME280;56457;52.190;4.440;2023-08-08T00:13:51;101527.16;;;17.87;100.00
69318;BME280;56457;52.190;4.440;2023-08-08T00:14:51;101528.03;;;17.88;100.00
69318;BME280;56457;52.190;4.440;2023-08-08T00:15:51;101522.66;;;17.91;100.00
69318;BME280;56457;52.190;4.440;2023-08-08T00:16:51;101513.88;;;17.87;100.00
69318;BME280;56457;52.190;4.440;2023-08-08T00:17:52;101520.91;;;17.90;100.00
69318;BME280;56457;52.190;4.440;2023-08-08T00:18:52;101520.94;;;17.88;100.00
69318;BME280;56457;52.190;4.440;2023-08-08T00:19:55;101520.03;;;17.89;100.00
69318;BME280;56457;52.190;4.440;2023-08-08T00:20:55;101519.16;;;17.89;100.00
69318;BME280;56457;52.190;4.440;2023-08-08T00:21:55;101512.91;;;17.91;100.00
69318;BME280;56457;52.190;4.440;2023-08-08T00:22:56;101507.59;;;17.91;100.00
69318;BME280;56457;52.190;4.440;2023-08-08T00:23:56;101515.59;;;17.90;100.00
69318;BME280;56457;52.190;4.440;2023-08-08T00:24:56;101514.78;;;17.86;100.00
69318;BME280;56457;52.190;4.440;2023-08-08T00:25:57;101518.38;;;17.85;100.00
69318;BME280;56457;52.190;4.440;2023-08-08T00:26:57;101510.47;;;17.84;100.00
69318;BME280;56457;52.190;4.440;2023-08-08T00:27:57;101510.34;;;17.87;100.00
69318;BME280;56457;52.190;4.440;2023-08-08T00:28:57;101502.28;;;17.91;100.00
69318;BME280;56457;52.190;4.440;2023-08-08T00:29:58;101512.78;;;17.96;100.00
69318;BME280;56457;52.190;4.440;2023-08-08T00:30:58;101499.53;;;17.94;100.00
69318;BME280;56457;52.190;4.440;2023-08-08T00:31:58;101510.34;;;17.87;100.00
69318;BME280;56457;52.190;4.440;2023-08-08T00:32:59;101504.88;;;17.93;100.00
69318;BME280;56457;52.190;4.440;2023-08-08T00:33:59;101505.81;;;17.92;100.00
69318;BME280;56457;52.190;4.440;2023-08-08T00:34:59;101500.53;;;17.90;100.00
69318;BME280;56457;52.190;4.440;2023-08-08T00:35:59;101511.28;;;17.86;100.00
69318;BME280;56457;52.190;4.440;2023-08-08T00:37:00;101502.44;;;17.85;100.00
69318;BME280;56457;52.190;4.440;2023-08-08T00:38:00;101506.13;;;17.80;100.00
69318;BME280;56457;52.190;4.440;2023-08-08T00:39:00;101507.09;;;17.77;100.00
69318;BME280;56457;52.190;4.440;2023-08-08T00:40:00;101510.63;;;17.78;100.00
69318;BME280;56457;52.190;4.440;2023-08-08T00:41:01;101506.22;;;17.77;100.00
69318;BME280;56457;52.190;4.440;2023-08-08T00:42:01;101511.59;;;17.73;100.00
69318;BME280;56457;52.190;4.440;2023-08-08T00:43:02;101515.06;;;17.77;100.00
69318;BME280;56457;52.190;4.440;2023-08-08T00:44:02;101514.91;;;17.82;100.00
69318;BME280;56457;52.190;4.440;2023-08-08T00:45:03;101507.97;;;17.78;100.00
69318;BME280;56457;52.190;4.440;2023-08-08T00:46:04;101508.91;;;17.75;100.00
69318;BME280;56457;52.190;4.440;2023-08-08T00:47:04;101508.03;;;17.74;100.00
69318;BME280;56457;52.190;4.440;2023-08-08T00:48:04;101512.34;;;17.79;100.00
69318;BME280;56457;52.190;4.440;2023-08-08T00:49:05;101506.19;;;17.78;100.00
69318;BME280;56457;52.190;4.440;2023-08-08T00:50:05;101503.59;;;17.75;100.00
69318;BME280;56457;52.190;4.440;2023-08-08T00:51:06;101509.81;;;17.74;100.00
69318;BME280;56457;52.190;4.440;2023-08-08T00:52:06;101515.13;;;17.74;100.00
69318;BME280;56457;52.190;4.440;2023-08-08T00:53:07;101508.88;;;17.77;100.00
69318;BME280;56457;52.190;4.440;2023-08-08T00:54:07;101507.22;;;17.72;100.00
69318;BME280;56457;52.190;4.440;2023-08-08T00:55:08;101509.03;;;17.70;100.00
69318;BME280;56457;52.190;4.440;2023-08-08T00:56:09;101509.03;;;17.70;100.00
69318;BME280;56457;52.190;4.440;2023-08-08T00:57:09;101506.34;;;17.72;100.00
69318;BME280;56457;52.190;4.440;2023-08-08T00:58:10;101515.19;;;17.71;100.00
69318;BME280;56457;52.190;4.440;2023-08-08T00:59:10;101517.88;;;17.69;100.00
69318;BME280;56457;52.190;4.440;2023-08-08T01:00:12;101508.13;;;17.71;100.00
69318;BME280;56457;52.190;4.440;2023-08-08T01:01:12;101506.34;;;17.72;100.00
69318;BME280;56457;52.190;4.440;2023-08-08T01:02:13;101508.94;;;17.73;100.00
69318;BME280;56457;52.190;4.440;2023-08-08T01:03:13;101501.94;;;17.69;100.00
69318;BME280;56457;52.190;4.440;2023-08-08T01:04:13;101500.19;;;17.71;100.00
69318;BME280;56457;52.190;4.440;2023-08-08T01:05:14;101500.16;;;17.70;100.00
69318;BME280;56457;52.190;4.440;2023-08-08T01:06:28;101501.03;;;17.72;100.00
69318;BME280;56457;52.190;4.440;2023-08-08T01:09:13;101500.06;;;17.74;100.00
69318;BME280;56457;52.190;4.440;2023-08-08T01:11:08;101505.34;;;17.76;100.00
69318;BME280;56457;52.190;4.440;2023-08-08T01:12:09;101505.44;;;17.73;100.00
69318;BME280;56457;52.190;4.440;2023-08-08T01:13:15;101501.00;;;17.73;100.00
69318;BME280;56457;52.190;4.440;2023-08-08T01:14:17;101501.81;;;17.75;100.00
69318;BME280;56457;52.190;4.440;2023-08-08T01:15:19;101498.34;;;17.73;100.00
69318;BME280;56457;52.190;4.440;2023-08-08T01:16:19;101497.50;;;17.70;100.00
69318;BME280;56457;52.190;4.440;2023-08-08T01:17:21;101498.41;;;17.70;100.00
69318;BME280;56457;52.190;4.440;2023-08-08T01:18:22;101505.50;;;17.68;100.00
69318;BME280;56457;52.190;4.440;2023-08-08T01:19:26;101496.72;;;17.66;100.00
69318;BME280;56457;52.190;4.440;2023-08-08T01:20:27;101493.22;;;17.66;100.00
69318;BME280;56457;52.190;4.440;2023-08-08T01:21:27;101501.16;;;17.66;100.00
69318;BME280;56457;52.190;4.440;2023-08-08T01:22:55;101501.13;;;17.67;100.00
69318;BME280;56457;52.190;4.440;2023-08-08T01:23:53;101502.84;;;17.68;100.00
69318;BME280;56457;52.190;4.440;2023-08-08T01:24:55;101502.03;;;17.66;100.00
69318;BME280;56457;52.190;4.440;2023-08-08T01:25:56;101511.75;;;17.67;100.00
69318;BME280;56457;52.190;4.440;2023-08-08T01:26:57;101499.34;;;17.68;100.00
69318;BME280;56457;52.190;4.440;2023-08-08T01:27:58;101504.75;;;17.63;100.00
69318;BME280;56457;52.190;4.440;2023-08-08T01:28:58;101491.50;;;17.63;100.00
69318;BME280;56457;52.190;4.440;2023-08-08T01:29:59;101500.31;;;17.65;100.00
69318;BME280;56457;52.190;4.440;2023-08-08T01:30:59;101496.78;;;17.63;100.00
69318;BME280;56457;52.190;4.440;2023-08-08T01:31:59;101488.97;;;17.59;100.00
69318;BME280;56457;52.190;4.440;2023-08-08T01:33:00;101495.97;;;17.61;100.00
69318;BME280;56457;52.190;4.440;2023-08-08T01:34:00;101498.53;;;17.66;100.00
69318;BME280;56457;52.190;4.440;2023-08-08T01:35:00;101498.47;;;17.67;100.00
69318;BME280;56457;52.190;4.440;2023-08-08T01:36:02;101494.03;;;17.68;100.00
69318;BME280;56457;52.190;4.440;2023-08-08T01:37:07;101496.63;;;17.69;100.00
69318;BME280;56457;52.190;4.440;2023-08-08T01:38:14;101496.63;;;17.69;100.00
69318;BME280;56457;52.190;4.440;2023-08-08T01:39:17;101507.25;;;17.69;100.00
69318;BME280;56457;52.190;4.440;2023-08-08T01:40:20;101493.97;;;17.69;100.00
69318;BME280;56457;52.190;4.440;2023-08-08T01:41:20;101494.09;;;17.66;100.00
69318;BME280;56457;52.190;4.440;2023-08-08T01:42:22;101493.97;;;17.69;100.00
69318;BME280;56457;52.190;4.440;2023-08-08T01:43:23;101490.47;;;17.69;100.00
69318;BME280;56457;52.190;4.440;2023-08-08T01:44:24;101496.63;;;17.69;100.00
69318;BME280;56457;52.190;4.440;2023-08-08T01:45:25;101496.78;;;17.63;100.00
69318;BME280;56457;52.190;4.440;2023-08-08T01:46:26;101491.38;;;17.68;100.00
69318;BME280;56457;52.190;4.440;2023-08-08T01:47:26;101483.38;;;17.69;100.00
69318;BME280;56457;52.190;4.440;2023-08-08T01:48:27;101485.16;;;17.69;100.00
69318;BME280;56457;52.190;4.440;2023-08-08T01:49:27;101487.78;;;17.70;100.00
69318;BME280;56457;52.190;4.440;2023-08-08T01:50:27;101477.16;;;17.72;100.00
69318;BME280;56457;52.190;4.440;2023-08-08T01:51:28;101479.81;;;17.72;100.00
69318;BME280;56457;52.190;4.440;2023-08-08T01:52:28;101470.16;;;17.68;100.00
69318;BME280;56457;52.190;4.440;2023-08-08T01:53:28;101479.16;;;17.62;100.00
69318;BME280;56457;52.190;4.440;2023-08-08T01:54:29;101480.94;;;17.62;100.00
69318;BME280;56457;52.190;4.440;2023-08-08T01:55:29;101480.00;;;17.63;100.00
69318;BME280;56457;52.190;4.440;2023-08-08T01:56:30;101480.88;;;17.63;100.00
69318;BME280;56457;52.190;4.440;2023-08-08T01:57:30;101481.78;;;17.62;100.00
69318;BME280;56457;52.190;4.440;2023-08-08T01:58:30;101482.72;;;17.61;100.00
69318;BME280;56457;52.190;4.440;2023-08-08T01:59:31;101477.41;;;17.61;100.00
69318;BME280;56457;52.190;4.440;2023-08-08T02:00:31;101469.53;;;17.58;100.00
69318;BME280;56457;52.190;4.440;2023-08-08T02:01:31;101476.69;;;17.55;100.00
69318;BME280;56457;52.190;4.440;2023-08-08T02:02:31;101473.94;;;17.59;100.00
69318;BME280;56457;52.190;4.440;2023-08-08T02:03:32;101467.75;;;17.59;100.00
69318;BME280;56457;52.190;4.440;2023-08-08T02:04:32;101468.69;;;17.58;100.00
69318;BME280;56457;52.190;4.440;2023-08-08T02:05:33;101466.88;;;17.58;100.00
69318;BME280;56457;52.190;4.440;2023-08-08T02:06:33;101469.56;;;17.57;100.00
69318;BME280;56457;52.190;4.440;2023-08-08T02:07:33;101468.78;;;17.53;100.00
69318;BME280;56457;52.190;4.440;2023-08-08T02:08:33;101466.97;;;17.55;100.00
69318;BME280;56457;52.190;4.440;2023-08-08T02:09:34;101471.41;;;17.55;100.00
69318;BME280;56457;52.190;4.440;2023-08-08T02:10:34;101473.22;;;17.53;100.00
69318;BME280;56457;52.190;4.440;2023-08-08T02:11:34;101472.44;;;17.49;100.00
69318;BME280;56457;52.190;4.440;2023-08-08T02:12:35;101468.97;;;17.47;100.00
69318;BME280;56457;52.190;4.440;2023-08-08T02:13:35;101475.19;;;17.44;100.00
69318;BME280;56457;52.190;4.440;2023-08-08T02:14:35;101466.50;;;17.39;100.00
69318;BME280;56457;52.190;4.440;2023-08-08T02:15:35;101469.22;;;17.36;100.00
69318;BME280;56457;52.190;4.440;2023-08-08T02:16:36;101463.97;;;17.35;100.00
69318;BME280;56457;52.190;4.440;2023-08-08T02:17:37;101464.13;;;17.29;100.00
69318;BME280;56457;52.190;4.440;2023-08-08T02:18:37;101468.66;;;17.23;100.00
69318;BME280;56457;52.190;4.440;2023-08-08T02:19:40;101473.16;;;17.21;100.00
69318;BME280;56457;52.190;4.440;2023-08-08T02:20:41;101460.47;;;17.33;100.00
69318;BME280;56457;52.190;4.440;2023-08-08T02:21:41;101472.09;;;17.29;100.00
69318;BME280;56457;52.190;4.440;2023-08-08T02:22:41;101466.81;;;17.27;100.00
69318;BME280;56457;52.190;4.440;2023-08-08T02:23:41;101475.66;;;17.26;100.00
69318;BME280;56457;52.190;4.440;2023-08-08T02:24:42;101470.34;;;17.26;100.00
69318;BME280;56457;52.190;4.440;2023-08-08T02:25:42;101472.25;;;17.22;100.00
69318;BME280;56457;52.190;4.440;2023-08-08T02:26:42;101467.81;;;17.23;100.00
69318;BME280;56457;52.190;4.440;2023-08-08T02:27:43;101465.22;;;17.20;100.00
69318;BME280;56457;52.190;4.440;2023-08-08T02:28:43;101474.88;;;17.22;100.00
69318;BME280;56457;52.190;4.440;2023-08-08T02:29:43;101468.78;;;17.19;100.00
69318;BME280;56457;52.190;4.440;2023-08-08T02:30:44;101472.34;;;17.18;100.00
69318;BME280;56457;52.190;4.440;2023-08-08T02:31:44;101467.84;;;17.21;100.00
69318;BME280;56457;52.190;4.440;2023-08-08T02:32:44;101467.97;;;17.17;100.00
69318;BME280;56457;52.190;4.440;2023-08-08T02:33:45;101470.66;;;17.15;100.00
69318;BME280;56457;52.190;4.440;2023-08-08T02:34:45;101464.44;;;17.16;100.00
69318;BME280;56457;52.190;4.440;2023-08-08T02:35:45;101468.00;;;17.14;100.00
69318;BME280;56457;52.190;4.440;2023-08-08T02:36:45;101462.72;;;17.14;100.00
69318;BME280;56457;52.190;4.440;2023-08-08T02:37:46;101462.75;;;17.12;100.00
69318;BME280;56457;52.190;4.440;2023-08-08T02:38:46;101459.28;;;17.10;100.00
69318;BME280;56457;52.190;4.440;2023-08-08T02:39:46;101460.16;;;17.11;100.00
69318;BME280;56457;52.190;4.440;2023-08-08T02:40:47;101457.47;;;17.12;100.00
69318;BME280;56457;52.190;4.440;2023-08-08T02:41:47;101459.28;;;17.10;100.00
69318;BME280;56457;52.190;4.440;2023-08-08T02:42:47;101455.97;;;17.02;100.00
69318;BME280;56457;52.190;4.440;2023-08-08T02:43:47;101450.56;;;17.05;100.00
69318;BME280;56457;52.190;4.440;2023-08-08T02:44:48;101461.19;;;17.05;100.00
69318;BME280;56457;52.190;4.440;2023-08-08T02:45:48;101461.22;;;17.04;100.00
69318;BME280;56457;52.190;4.440;2023-08-08T02:46:48;101454.25;;;17.00;100.00
69318;BME280;56457;52.190;4.440;2023-08-08T02:47:49;101454.25;;;17.00;100.00
69318;BME280;56457;52.190;4.440;2023-08-08T02:48:49;101459.50;;;17.01;100.00
69318;BME280;56457;52.190;4.440;2023-08-08T02:49:49;101456.97;;;16.97;100.00
69318;BME280;56457;52.190;4.440;2023-08-08T02:50:50;101458.78;;;16.96;100.00
69318;BME280;56457;52.190;4.440;2023-08-08T02:51:50;101449.91;;;16.97;100.00
69318;BME280;56457;52.190;4.440;2023-08-08T02:52:50;101455.25;;;16.95;100.00
69318;BME280;56457;52.190;4.440;2023-08-08T02:53:51;101453.53;;;16.93;100.00
69318;BME280;56457;52.190;4.440;2023-08-08T02:54:52;101457.00;;;16.95;100.00
69318;BME280;56457;52.190;4.440;2023-08-08T02:55:52;101450.88;;;16.93;100.00
69318;BME280;56457;52.190;4.440;2023-08-08T02:56:52;101452.75;;;16.89;100.00
69318;BME280;56457;52.190;4.440;2023-08-08T02:57:53;101456.25;;;16.90;100.00
69318;BME280;56457;52.190;4.440;2023-08-08T02:58:53;101456.31;;;16.87;100.00
69318;BME280;56457;52.190;4.440;2023-08-08T02:59:53;101446.69;;;16.83;100.00
69318;BME280;56457;52.190;4.440;2023-08-08T03:00:54;101440.41;;;16.87;100.00
69318;BME280;56457;52.190;4.440;2023-08-08T03:01:54;101443.19;;;16.82;100.00
69318;BME280;56457;52.190;4.440;2023-08-08T03:02:54;101437.06;;;16.80;100.00
69318;BME280;56457;52.190;4.440;2023-08-08T03:03:55;101439.69;;;16.80;100.00
69318;BME280;56457;52.190;4.440;2023-08-08T03:04:55;101441.38;;;16.84;100.00
69318;BME280;56457;52.190;4.440;2023-08-08T03:05:55;101434.44;;;16.79;100.00
69318;BME280;56457;52.190;4.440;2023-08-08T03:06:56;101440.66;;;16.78;100.00
69318;BME280;56457;52.190;4.440;2023-08-08T03:07:56;101441.63;;;16.74;100.00
69318;BME280;56457;52.190;4.440;2023-08-08T03:08:56;101443.41;;;16.73;100.00
69318;BME280;56457;52.190;4.440;2023-08-08T03:09:56;101437.13;;;16.77;100.00
69318;BME280;56457;52.190;4.440;2023-08-08T03:10:57;101443.31;;;16.76;100.00
69318;BME280;56457;52.190;4.440;2023-08-08T03:11:57;101444.31;;;16.72;100.00
69318;BME280;56457;52.190;4.440;2023-08-08T03:12:57;101433.69;;;16.74;100.00
69318;BME280;56457;52.190;4.440;2023-08-08T03:13:58;101436.38;;;16.72;100.00
69318;BME280;56457;52.190;4.440;2023-08-08T03:14:58;101442.53;;;16.73;100.00
69318;BME280;56457;52.190;4.440;2023-08-08T03:15:58;101437.25;;;16.69;100.00
69318;BME280;56457;52.190;4.440;2023-08-08T03:16:59;101444.38;;;16.67;100.00
69318;BME280;56457;52.190;4.440;2023-08-08T03:17:59;101441.78;;;16.64;100.00
69318;BME280;56457;52.190;4.440;2023-08-08T03:18:59;101441.75;;;16.67;100.00
69318;BME280;56457;52.190;4.440;2023-08-08T03:20:00;101443.53;;;16.67;100.00
69318;BME280;56457;52.190;4.440;2023-08-08T03:21:00;101438.22;;;16.67;100.00
69318;BME280;56457;52.190;4.440;2023-08-08T03:22:01;101439.97;;;16.68;100.00
69318;BME280;56457;52.190;4.440;2023-08-08T03:23:01;101442.59;;;16.71;100.00
69318;BME280;56457;52.190;4.440;2023-08-08T03:24:01;101439.03;;;16.69;100.00
69318;BME280;56457;52.190;4.440;2023-08-08T03:25:02;101432.91;;;16.67;100.00
69318;BME280;56457;52.190;4.440;2023-08-08T03:26:04;101436.59;;;16.61;100.00
69318;BME280;56457;52.190;4.440;2023-08-08T03:27:04;101439.22;;;16.61;100.00
69318;BME280;56457;52.190;4.440;2023-08-08T03:28:05;101434.81;;;16.62;100.00
69318;BME280;56457;52.190;4.440;2023-08-08T03:29:05;101440.97;;;16.62;100.00
69318;BME280;56457;52.190;4.440;2023-08-08T03:30:09;101440.19;;;16.59;100.00
69318;BME280;56457;52.190;4.440;2023-08-08T03:31:10;101438.41;;;16.58;100.00
69318;BME280;56457;52.190;4.440;2023-08-08T03:32:10;101440.19;;;16.57;100.00
69318;BME280;56457;52.190;4.440;2023-08-08T03:33:10;101437.56;;;16.57;100.00
69318;BME280;56457;52.190;4.440;2023-08-08T03:34:11;101436.69;;;16.57;100.00
69318;BME280;56457;52.190;4.440;2023-08-08T03:35:11;101440.25;;;16.56;100.00
69318;BME280;56457;52.190;4.440;2023-08-08T03:36:11;101442.03;;;16.55;100.00
69318;BME280;56457;52.190;4.440;2023-08-08T03:37:12;101440.31;;;16.53;100.00
69318;BME280;56457;52.190;4.440;2023-08-08T03:38:12;101434.06;;;16.55;100.00
69318;BME280;56457;52.190;4.440;2023-08-08T03:39:12;101424.31;;;16.57;100.00
69318;BME280;56457;52.190;4.440;2023-08-08T03:40:12;101426.94;;;16.59;100.00
69318;BME280;56457;52.190;4.440;2023-08-08T03:41:15;101425.13;;;16.61;100.00
69318;BME280;56457;52.190;4.440;2023-08-08T03:42:16;101423.44;;;16.58;100.00
69318;BME280;56457;52.190;4.440;2023-08-08T03:43:16;101426.03;;;16.60;100.00
69318;BME280;56457;52.190;4.440;2023-08-08T03:44:16;101424.22;;;16.62;100.00
69318;BME280;56457;52.190;4.440;2023-08-08T03:45:17;101415.41;;;16.61;100.00
69318;BME280;56457;52.190;4.440;2023-08-08T03:46:17;101420.66;;;16.63;100.00
69318;BME280;56457;52.190;4.440;2023-08-08T03:47:17;101419.88;;;16.59;100.00
69318;BME280;56457;52.190;4.440;2023-08-08T03:48:17;101415.44;;;16.60;100.00
69318;BME280;56457;52.190;4.440;2023-08-08T03:49:18;101418.19;;;16.55;100.00
69318;BME280;56457;52.190;4.440;2023-08-08T03:50:18;101417.22;;;16.58;100.00
69318;BME280;56457;52.190;4.440;2023-08-08T03:51:18;101411.97;;;16.56;100.00
69318;BME280;56457;52.190;4.440;2023-08-08T03:52:19;101409.38;;;16.55;100.00
69318;BME280;56457;52.190;4.440;2023-08-08T03:53:19;101416.44;;;16.54;100.00
69318;BME280;56457;52.190;4.440;2023-08-08T03:54:19;101421.75;;;16.54;100.00
69318;BME280;56457;52.190;4.440;2023-08-08T03:55:19;101416.50;;;16.53;100.00
69318;BME280;56457;52.190;4.440;2023-08-08T03:56:20;101418.22;;;16.54;100.00
69318;BME280;56457;52.190;4.440;2023-08-08T03:57:20;101415.56;;;16.54;100.00
69318;BME280;56457;52.190;4.440;2023-08-08T03:58:20;101420.91;;;16.52;100.00
69318;BME280;56457;52.190;4.440;2023-08-08T03:59:21;101425.31;;;16.53;100.00
69318;BME280;56457;52.190;4.440;2023-08-08T04:00:21;101419.13;;;16.53;100.00
69318;BME280;56457;52.190;4.440;2023-08-08T04:01:21;101417.34;;;16.53;100.00
69318;BME280;56457;52.190;4.440;2023-08-08T04:02:22;101416.44;;;16.54;100.00
69318;BME280;56457;52.190;4.440;2023-08-08T04:03:22;101429.72;;;16.53;100.00
69318;BME280;56457;52.190;4.440;2023-08-08T04:04:22;101422.56;;;16.56;100.00
69318;BME280;56457;52.190;4.440;2023-08-08T04:05:22;101423.47;;;16.55;100.00
69318;BME280;56457;52.190;4.440;2023-08-08T04:06:23;101416.50;;;16.53;100.00
69318;BME280;56457;52.190;4.440;2023-08-08T04:07:23;101424.44;;;16.51;100.00
69318;BME280;56457;52.190;4.440;2023-08-08T04:08:23;101417.34;;;16.53;100.00
69318;BME280;56457;52.190;4.440;2023-08-08T04:09:24;101412.97;;;16.52;100.00
69318;BME280;56457;52.190;4.440;2023-08-08T04:10:24;101422.66;;;16.52;100.00
69318;BME280;56457;52.190;4.440;2023-08-08T04:11:24;101414.84;;;16.47;100.00
69318;BME280;56457;52.190;4.440;2023-08-08T04:12:24;101421.88;;;16.48;100.00
69318;BME280;56457;52.190;4.440;2023-08-08T04:13:25;101428.91;;;16.49;100.00
69318;BME280;56457;52.190;4.440;2023-08-08T04:14:25;101425.44;;;16.47;100.00
69318;BME280;56457;52.190;4.440;2023-08-08T04:15:25;101421.06;;;16.45;100.00
69318;BME280;56457;52.190;4.440;2023-08-08T04:16:26;101426.38;;;16.45;100.00
69318;BME280;56457;52.190;4.440;2023-08-08T04:17:26;101426.41;;;16.43;100.00
69318;BME280;56457;52.190;4.440;2023-08-08T04:18:26;101413.94;;;16.48;100.00
69318;BME280;56457;52.190;4.440;2023-08-08T04:19:26;101421.94;;;16.47;100.00
69318;BME280;56457;52.190;4.440;2023-08-08T04:20:27;101424.56;;;16.47;100.00
69318;BME280;56457;52.190;4.440;2023-08-08T04:21:27;101428.06;;;16.49;100.00
69318;BME280;56457;52.190;4.440;2023-08-08T04:22:28;101420.09;;;16.49;100.00
69318;BME280;56457;52.190;4.440;2023-08-08T04:23:29;101419.13;;;16.53;100.00
69318;BME280;56457;52.190;4.440;2023-08-08T04:24:29;101421.88;;;16.48;100.00
69318;BME280;56457;52.190;4.440;2023-08-08T04:25:29;101416.63;;;16.47;100.00
69318;BME280;56457;52.190;4.440;2023-08-08T04:26:30;101420.16;;;16.47;100.00
69318;BME280;56457;52.190;4.440;2023-08-08T04:27:30;101420.97;;;16.49;100.00
69318;BME280;56457;52.190;4.440;2023-08-08T04:28:30;101413.03;;;16.49;100.00
69318;BME280;56457;52.190;4.440;2023-08-08T04:29:31;101420.09;;;16.49;100.00
69318;BME280;56457;52.190;4.440;2023-08-08T04:30:31;101417.41;;;16.50;100.00
69318;BME280;56457;52.190;4.440;2023-08-08T04:31:31;101422.81;;;16.47;100.00
69318;BME280;56457;52.190;4.440;2023-08-08T04:32:31;101422.84;;;16.44;100.00
69318;BME280;56457;52.190;4.440;2023-08-08T04:33:32;101413.13;;;16.46;100.00
69318;BME280;56457;52.190;4.440;2023-08-08T04:34:32;101413.97;;;16.47;100.00
69318;BME280;56457;52.190;4.440;2023-08-08T04:35:32;101418.41;;;16.46;100.00
69318;BME280;56457;52.190;4.440;2023-08-08T04:36:33;101419.16;;;16.51;100.00
69318;BME280;56457;52.190;4.440;2023-08-08T04:37:33;101418.31;;;16.49;100.00
69318;BME280;56457;52.190;4.440;2023-08-08T04:38:33;101414.00;;;16.45;100.00
69318;BME280;56457;52.190;4.440;2023-08-08T04:39:34;101408.75;;;16.43;100.00
69318;BME280;56457;52.190;4.440;2023-08-08T04:40:34;101418.41;;;16.45;100.00
69318;BME280;56457;52.190;4.440;2023-08-08T04:41:35;101417.63;;;16.41;100.00
69318;BME280;56457;52.190;4.440;2023-08-08T04:42:35;101422.91;;;16.42;100.00
69318;BME280;56457;52.190;4.440;2023-08-08T04:43:36;101421.19;;;16.40;100.00
69318;BME280;56457;52.190;4.440;2023-08-08T04:44:36;101424.72;;;16.40;100.00
69318;BME280;56457;52.190;4.440;2023-08-08T04:45:36;101431.75;;;16.41;100.00
69318;BME280;56457;52.190;4.440;2023-08-08T04:46:37;101429.16;;;16.38;100.00
69318;BME280;56457;52.190;4.440;2023-08-08T04:47:37;101425.69;;;16.36;100.00
69318;BME280;56457;52.190;4.440;2023-08-08T04:48:37;101424.66;;;16.42;100.00
69318;BME280;56457;52.190;4.440;2023-08-08T04:49:37;101430.88;;;16.39;100.00
69318;BME280;56457;52.190;4.440;2023-08-08T04:50:38;101438.81;;;16.41;100.00
69318;BME280;56457;52.190;4.440;2023-08-08T04:51:39;101430.94;;;16.38;100.00
69318;BME280;56457;52.190;4.440;2023-08-08T04:52:39;101423.84;;;16.38;100.00
69318;BME280;56457;52.190;4.440;2023-08-08T04:53:39;101430.94;;;16.38;100.00
69318;BME280;56457;52.190;4.440;2023-08-08T04:54:40;101432.72;;;16.37;100.00
69318;BME280;56457;52.190;4.440;2023-08-08T04:55:40;101431.03;;;16.35;100.00
69318;BME280;56457;52.190;4.440;2023-08-08T04:56:40;101432.84;;;16.31;100.00
69318;BME280;56457;52.190;4.440;2023-08-08T04:57:40;101429.41;;;16.28;100.00
69318;BME280;56457;52.190;4.440;2023-08-08T04:58:41;101437.38;;;16.26;100.00
69318;BME280;56457;52.190;4.440;2023-08-08T04:59:41;101432.06;;;16.26;100.00
69318;BME280;56457;52.190;4.440;2023-08-08T05:00:42;101426.00;;;16.23;100.00
69318;BME280;56457;52.190;4.440;2023-08-08T05:01:43;101434.81;;;16.23;100.00
69318;BME280;56457;52.190;4.440;2023-08-08T05:02:43;101439.22;;;16.23;100.00
69318;BME280;56457;52.190;4.440;2023-08-08T05:03:43;101433.03;;;16.24;100.00
69318;BME280;56457;52.190;4.440;2023-08-08T05:04:43;101434.75;;;16.25;100.00
69318;BME280;56457;52.190;4.440;2023-08-08T05:05:44;101435.72;;;16.22;100.00
69318;BME280;56457;52.190;4.440;2023-08-08T05:06:46;101433.03;;;16.24;100.00
69318;BME280;56457;52.190;4.440;2023-08-08T05:07:47;101431.28;;;16.23;100.00
69318;BME280;56457;52.190;4.440;2023-08-08T05:08:48;101426.84;;;16.23;100.00
69318;BME280;56457;52.190;4.440;2023-08-08T05:09:48;101425.13;;;16.21;100.00
69318;BME280;56457;52.190;4.440;2023-08-08T05:10:49;101429.47;;;16.25;100.00
69318;BME280;56457;52.190;4.440;2023-08-08T05:11:49;101426.78;;;16.26;100.00
69318;BME280;56457;52.190;4.440;2023-08-08T05:12:49;101421.47;;;16.26;100.00
69318;BME280;56457;52.190;4.440;2023-08-08T05:13:49;101426.69;;;16.31;100.00
69318;BME280;56457;52.190;4.440;2023-08-08T05:14:50;101431.06;;;16.32;100.00
69318;BME280;56457;52.190;4.440;2023-08-08T05:15:50;101423.09;;;16.33;100.00